createdAt,value
2023-08-06T00:00:21.541Z,14.22
2023-08-06T00:05:23.123Z,14.19
2023-08-06T00:10:24.668Z,14.20
2023-08-06T00:15:26.220Z,14.16
2023-08-06T00:20:27.830Z,14.19
2023-08-06T00:25:29.402Z,14.14
2023-08-06T00:30:31.070Z,14.08
2023-08-06T00:35:32.659Z,14.12
2023-08-06T00:40:34.227Z,14.11
2023-08-06T00:45:38.772Z,14.17
2023-08-06T00:50:40.860Z,14.24
2023-08-06T00:55:45.364Z,14.22
2023-08-06T01:00:47.235Z,14.27
2023-08-06T01:05:49.144Z,14.30
2023-08-06T01:11:27.643Z,14.30
2023-08-06T01:16:31.331Z,14.19
2023-08-06T01:21:32.944Z,14.28
2023-08-06T01:26:40.105Z,14.26
2023-08-06T01:31:45.597Z,14.31
2023-08-06T01:36:47.391Z,14.32
2023-08-06T01:41:52.083Z,14.35
2023-08-06T01:46:53.891Z,14.37
2023-08-06T01:51:55.439Z,14.36
2023-08-06T01:56:59.469Z,14.41
2023-08-06T02:02:01.027Z,14.41
2023-08-06T02:07:02.646Z,14.38
2023-08-06T02:12:04.658Z,14.35
2023-08-06T02:17:06.427Z,14.20
2023-08-06T02:22:07.984Z,14.10
2023-08-06T02:27:09.897Z,14.04
2023-08-06T02:32:11.456Z,13.96
2023-08-06T02:37:13.001Z,13.92
2023-08-06T02:42:14.630Z,13.93
2023-08-06T02:47:16.165Z,13.97
2023-08-06T02:52:18.003Z,13.95
2023-08-06T02:57:19.642Z,13.91
2023-08-06T03:02:21.209Z,13.86
2023-08-06T03:07:22.773Z,13.86
2023-08-06T03:12:24.330Z,13.83
2023-08-06T03:17:25.969Z,13.82
2023-08-06T03:22:27.594Z,13.79
2023-08-06T03:27:29.147Z,13.83
2023-08-06T03:32:30.794Z,13.79
2023-08-06T03:37:32.348Z,13.82
2023-08-06T03:42:33.911Z,13.81
2023-08-06T03:47:35.574Z,13.81
2023-08-06T03:52:37.205Z,13.86
2023-08-06T03:57:38.797Z,13.91
2023-08-06T04:02:40.561Z,13.91
2023-08-06T04:07:42.197Z,13.93
2023-08-06T04:12:43.842Z,13.88
2023-08-06T04:17:45.409Z,13.93
2023-08-06T04:22:47.016Z,13.97
2023-08-06T04:27:48.952Z,13.97
2023-08-06T04:32:51.698Z,14.02
2023-08-06T04:37:53.360Z,13.97
2023-08-06T04:42:54.905Z,13.93
2023-08-06T04:47:56.491Z,13.97
2023-08-06T04:52:58.085Z,14.03
2023-08-06T04:57:59.674Z,14.05
2023-08-06T05:03:02.468Z,14.01
2023-08-06T05:08:04.212Z,14.06
2023-08-06T05:13:05.752Z,14.06
2023-08-06T05:18:07.358Z,13.99
2023-08-06T05:23:09.226Z,14.04
2023-08-06T05:28:10.791Z,14.04
2023-08-06T05:33:12.353Z,14.10
2023-08-06T05:38:13.983Z,14.13
2023-08-06T05:43:15.841Z,14.14
2023-08-06T05:48:17.451Z,14.19
2023-08-06T05:53:19.075Z,14.33
2023-08-06T05:58:25.362Z,14.40
2023-08-06T06:03:27.875Z,14.45
2023-08-06T06:08:29.438Z,14.50
2023-08-06T06:13:30.942Z,14.46
2023-08-06T06:18:32.534Z,14.42
2023-08-06T06:23:34.084Z,14.48
2023-08-06T06:28:35.620Z,14.54
2023-08-06T06:33:37.318Z,14.51
2023-08-06T06:38:38.999Z,14.54
2023-08-06T06:43:41.030Z,14.54
2023-08-06T06:48:42.605Z,14.59
2023-08-06T06:53:44.167Z,14.62
2023-08-06T06:58:45.722Z,14.60
2023-08-06T07:03:47.324Z,14.60
2023-08-06T07:08:48.882Z,14.63
2023-08-06T07:13:57.001Z,14.68
2023-08-06T07:18:58.660Z,14.71
2023-08-06T07:24:00.957Z,14.70
2023-08-06T07:29:02.711Z,14.69
2023-08-06T07:34:05.309Z,14.68
2023-08-06T07:39:07.368Z,14.62
2023-08-06T07:44:09.015Z,14.60
2023-08-06T07:49:12.211Z,14.63
2023-08-06T07:54:13.905Z,14.60
2023-08-06T07:59:15.481Z,14.57
2023-08-06T08:04:16.994Z,14.58
2023-08-06T08:09:19.194Z,14.52
2023-08-06T08:14:20.809Z,14.52
2023-08-06T08:19:22.471Z,14.57
2023-08-06T08:24:27.179Z,14.61
2023-08-06T08:29:28.744Z,14.64
2023-08-06T08:34:30.358Z,14.62
2023-08-06T08:39:31.933Z,14.52
2023-08-06T08:44:34.624Z,14.50
2023-08-06T08:49:37.055Z,14.48
2023-08-06T08:54:40.219Z,14.38
2023-08-06T08:59:41.788Z,14.37
2023-08-06T09:04:44.664Z,14.36
2023-08-06T09:09:49.874Z,14.41
2023-08-06T09:14:51.507Z,14.47
2023-08-06T09:19:53.142Z,14.56
2023-08-06T09:24:54.684Z,14.63
2023-08-06T09:29:56.273Z,14.73
2023-08-06T09:34:58.377Z,14.72
2023-08-06T09:40:00.184Z,14.66
2023-08-06T09:45:07.550Z,14.58
2023-08-06T09:50:19.399Z,14.67
2023-08-06T09:55:23.188Z,14.74
2023-08-06T10:00:25.046Z,14.83
2023-08-06T10:05:28.307Z,14.82
2023-08-06T10:10:30.830Z,14.77
2023-08-06T10:15:34.107Z,14.72
2023-08-06T10:20:36.242Z,14.73
2023-08-06T10:25:43.076Z,14.77
2023-08-06T10:30:49.000Z,14.74
2023-08-06T10:35:51.937Z,14.71
2023-08-06T10:40:53.777Z,14.68
2023-08-06T10:45:56.309Z,14.69
2023-08-06T10:50:58.111Z,14.82
2023-08-06T10:55:59.801Z,14.80
2023-08-06T11:01:01.785Z,14.78
2023-08-06T11:06:04.115Z,14.73
2023-08-06T11:11:14.412Z,14.72
2023-08-06T11:16:20.673Z,14.82
2023-08-06T11:21:23.033Z,14.96
2023-08-06T11:26:25.036Z,15.18
2023-08-06T11:31:26.824Z,15.31
2023-08-06T11:36:34.697Z,15.38
2023-08-06T11:41:39.162Z,15.37
2023-08-06T11:46:53.695Z,15.28
2023-08-06T11:51:55.501Z,15.22
2023-08-06T11:56:57.518Z,15.20
2023-08-06T12:02:00.879Z,15.20
2023-08-06T12:07:08.807Z,15.29
2023-08-06T12:12:10.427Z,15.31
2023-08-06T12:17:11.943Z,15.35
2023-08-06T12:22:14.715Z,15.42
2023-08-06T12:27:18.948Z,15.50
2023-08-06T12:32:20.609Z,15.58
2023-08-06T12:37:22.475Z,15.66
2023-08-06T12:42:25.572Z,15.73
2023-08-06T12:47:27.192Z,15.79
2023-08-06T12:52:28.770Z,15.77
2023-08-06T12:57:43.371Z,15.79
2023-08-06T13:02:49.788Z,15.82
2023-08-06T13:07:51.489Z,15.83
2023-08-06T13:12:53.028Z,15.94
2023-08-06T13:17:54.611Z,16.00
2023-08-06T13:22:56.441Z,15.99
2023-08-06T13:27:58.054Z,15.87
2023-08-06T13:32:59.761Z,15.96
2023-08-06T13:38:03.880Z,16.02
2023-08-06T13:43:06.578Z,16.09
2023-08-06T13:48:08.290Z,16.07
2023-08-06T13:53:09.801Z,16.00
2023-08-06T13:58:11.336Z,16.01
2023-08-06T14:03:13.184Z,16.07
2023-08-06T14:08:15.081Z,16.02
2023-08-06T14:13:16.789Z,16.15
2023-08-06T14:18:18.441Z,16.34
2023-08-06T14:23:20.027Z,16.46
2023-08-06T14:28:22.041Z,16.37
2023-08-06T14:33:27.849Z,16.19
2023-08-06T14:38:30.196Z,15.91
2023-08-06T14:43:31.720Z,15.67
2023-08-06T14:48:33.306Z,15.49
2023-08-06T14:53:35.003Z,15.54
2023-08-06T14:58:36.656Z,15.63
2023-08-06T15:03:38.292Z,15.77
2023-08-06T15:08:39.881Z,15.78
2023-08-06T15:13:41.721Z,15.71
2023-08-06T15:18:44.628Z,15.70
2023-08-06T15:23:46.180Z,15.83
2023-08-06T15:28:47.811Z,15.83
2023-08-06T15:33:49.886Z,15.82
2023-08-06T15:38:51.431Z,15.71
2023-08-06T15:43:53.479Z,15.64
2023-08-06T15:48:55.096Z,15.62
2023-08-06T15:53:56.820Z,15.58
2023-08-06T15:58:58.418Z,15.57
2023-08-06T16:04:00.112Z,15.56
2023-08-06T16:09:01.654Z,15.57
2023-08-06T16:14:03.673Z,15.47
2023-08-06T16:19:05.370Z,15.38
2023-08-06T16:24:08.010Z,15.46
2023-08-06T16:29:09.560Z,15.50
2023-08-06T16:34:11.071Z,15.54
2023-08-06T16:39:12.671Z,15.50
2023-08-06T16:44:14.284Z,15.37
2023-08-06T16:49:15.881Z,15.16
2023-08-06T16:54:17.469Z,14.98
2023-08-06T16:59:19.073Z,14.79
2023-08-06T17:04:21.280Z,14.83
2023-08-06T17:09:22.850Z,14.89
2023-08-06T17:14:24.423Z,15.05
2023-08-06T17:19:26.015Z,14.87
2023-08-06T17:24:27.564Z,14.73
2023-08-06T17:29:29.156Z,14.68
2023-08-06T17:34:30.733Z,14.72
2023-08-06T17:39:33.144Z,14.80
2023-08-06T17:44:34.728Z,14.86
2023-08-06T17:49:36.224Z,14.95
2023-08-06T17:54:37.764Z,14.97
2023-08-06T17:59:39.323Z,14.98
2023-08-06T18:04:40.822Z,15.01
2023-08-06T18:09:42.760Z,14.89
2023-08-06T18:14:45.185Z,14.65
2023-08-06T18:19:46.842Z,14.57
2023-08-06T18:24:48.742Z,14.53
2023-08-06T18:29:50.309Z,14.56
2023-08-06T18:34:51.895Z,14.47
2023-08-06T18:39:53.715Z,14.52
2023-08-06T18:44:55.397Z,14.54
2023-08-06T18:49:57.069Z,14.50
2023-08-06T18:54:58.688Z,14.55
2023-08-06T19:00:00.381Z,14.53
2023-08-06T19:05:05.917Z,14.52
2023-08-06T19:10:07.866Z,14.48
2023-08-06T19:15:09.774Z,14.43
2023-08-06T19:20:12.569Z,14.42
2023-08-06T19:25:14.147Z,14.41
2023-08-06T19:30:15.701Z,14.47
2023-08-06T19:35:17.309Z,14.49
2023-08-06T19:40:19.184Z,14.49
2023-08-06T19:45:20.902Z,14.46
2023-08-06T19:50:22.689Z,14.45
2023-08-06T19:55:24.269Z,14.43
2023-08-06T20:00:25.932Z,14.42
2023-08-06T20:05:27.788Z,14.47
2023-08-06T20:10:31.562Z,14.48
2023-08-06T20:15:33.247Z,14.53
2023-08-06T20:20:38.196Z,14.59
2023-08-06T20:25:39.756Z,14.57
2023-08-06T20:30:44.583Z,14.50
2023-08-06T20:35:46.125Z,14.37
2023-08-06T20:40:51.302Z,14.29
2023-08-06T20:45:56.982Z,14.23
2023-08-06T20:50:59.142Z,14.17
2023-08-06T20:56:02.964Z,14.21
2023-08-06T21:01:04.680Z,14.20
2023-08-06T21:06:08.076Z,14.17
2023-08-06T21:11:14.490Z,14.11
2023-08-06T21:16:16.287Z,13.96
2023-08-06T21:21:17.972Z,13.95
2023-08-06T21:26:19.609Z,13.93
2023-08-06T21:31:21.186Z,13.89
2023-08-06T21:36:25.011Z,13.84
2023-08-06T21:41:26.620Z,13.77
2023-08-06T21:46:28.267Z,13.77
2023-08-06T21:51:29.876Z,13.82
2023-08-06T21:56:31.498Z,13.84
2023-08-06T22:01:33.125Z,13.82
2023-08-06T22:06:34.663Z,13.81
2023-08-06T22:11:36.173Z,13.79
2023-08-06T22:16:37.828Z,13.75
2023-08-06T22:21:39.404Z,13.84
2023-08-06T22:26:41.023Z,13.84
2023-08-06T22:31:42.599Z,13.90
2023-08-06T22:36:44.163Z,13.92
2023-08-06T22:41:45.777Z,14.02
2023-08-06T22:46:47.302Z,14.14
2023-08-06T22:51:48.848Z,14.27
2023-08-06T22:56:52.242Z,14.18
2023-08-06T23:01:54.123Z,13.87
2023-08-06T23:06:55.856Z,13.67
2023-08-06T23:11:57.579Z,13.56
2023-08-06T23:16:59.184Z,13.44
2023-08-06T23:22:00.843Z,13.41
2023-08-06T23:27:02.457Z,13.39
2023-08-06T23:32:04.219Z,13.31
2023-08-06T23:37:06.134Z,13.30
2023-08-06T23:42:07.698Z,13.29
2023-08-06T23:47:09.513Z,13.24
2023-08-06T23:52:11.046Z,13.19
2023-08-06T23:57:12.678Z,13.16
